Time;durP1;ratioP1;P1;durP2;ratioP2;P2;SDS_P1;SDS_P2;PMS_P1;PMS_P2;Temp;Humidity;BMP_temperature;BMP_pressure;BME280_temperature;BME280_humidity;BME280_pressure;Samples;Min_cycle;Max_cycle;Signal;HPM_P1;HPM_P2
2022/01/15 00:01:11;;;;;;;4.60;1.70;;;;;;;-0.51;100.00;96908.22;1719994;82;21558;-71
2022/01/15 00:03:39;;;;;;;3.07;1.57;;;;;;;-0.49;100.00;96916.34;1737597;82;21021;-71
2022/01/15 00:06:06;;;;;;;2.13;1.63;;;;;;;-0.48;100.00;96917.16;1768659;81;21048;-71
2022/01/15 00:08:34;;;;;;;3.57;1.20;;;;;;;-0.51;100.00;96920.16;1768150;80;21063;-70
2022/01/15 00:11:00;;;;;;;2.57;1.47;;;;;;;-0.53;100.00;96943.41;1737567;82;21072;-70
2022/01/15 00:13:30;;;;;;;3.37;1.50;;;;;;;-0.55;100.00;96944.09;1737384;83;21040;-71
2022/01/15 00:16:07;;;;;;;2.97;1.80;;;;;;;-0.56;100.00;96932.66;1737517;83;21040;-69
2022/01/15 00:18:47;;;;;;;2.50;1.37;;;;;;;-0.52;100.00;96942.42;1746890;80;21126;-71
2022/01/15 00:21:12;;;;;;;1.90;1.20;;;;;;;-0.53;100.00;96954.88;1737254;81;21071;-70
2022/01/15 00:23:41;;;;;;;3.13;0.90;;;;;;;-0.52;100.00;96959.16;1737249;83;21063;-71
2022/01/15 00:26:08;;;;;;;4.97;1.33;;;;;;;-0.54;100.00;96955.86;1768963;80;21024;-70
2022/01/15 00:28:35;;;;;;;4.93;1.77;;;;;;;-0.54;100.00;96959.02;1737576;83;21047;-70
2022/01/15 00:31:02;;;;;;;2.97;1.70;;;;;;;-0.56;100.00;96964.50;1737548;83;21537;-70
2022/01/15 00:33:30;;;;;;;3.07;1.17;;;;;;;-0.54;100.00;96959.02;1768775;81;21072;-70
2022/01/15 00:35:58;;;;;;;2.53;1.20;;;;;;;-0.54;100.00;96966.48;1768915;80;21028;-70
2022/01/15 00:38:31;;;;;;;1.87;1.23;;;;;;;-0.55;100.00;96980.73;1768977;81;20992;-71
2022/01/15 00:40:58;;;;;;;3.83;1.37;;;;;;;-0.52;100.00;96986.21;1743335;82;21008;-70
2022/01/15 00:43:25;;;;;;;3.77;1.30;;;;;;;-0.49;100.00;96976.58;1768938;81;21052;-70
2022/01/15 00:45:55;;;;;;;4.90;1.37;;;;;;;-0.50;100.00;96983.69;1737336;82;21020;-70
2022/01/15 00:48:21;;;;;;;4.70;1.07;;;;;;;-0.50;100.00;96995.64;1737656;80;21048;-69
2022/01/15 00:50:48;;;;;;;2.10;0.90;;;;;;;-0.49;100.00;97008.43;1737508;83;21497;-70
2022/01/15 00:53:15;;;;;;;4.23;1.30;;;;;;;-0.49;100.00;97016.39;1737559;83;21024;-71
2022/01/15 00:55:42;;;;;;;4.67;1.67;;;;;;;-0.49;100.00;97036.30;1743302;82;21473;-70
2022/01/15 00:58:10;;;;;;;3.73;1.23;;;;;;;-0.46;100.00;97020.85;1737366;82;21023;-69
2022/01/15 01:00:37;;;;;;;2.87;0.83;;;;;;;-0.41;100.00;97030.45;1735691;83;21029;-70
2022/01/15 01:03:04;;;;;;;2.63;1.30;;;;;;;-0.37;100.00;97052.16;1733602;81;20975;-71
2022/01/15 01:05:31;;;;;;;4.17;1.40;;;;;;;-0.33;100.00;97068.56;1696695;84;21058;-71
2022/01/15 01:07:58;;;;;;;5.60;1.60;;;;;;;-0.31;100.00;97076.67;1695964;84;21097;-70
2022/01/15 01:13:38;;;;;;;3.77;1.30;;;;;;;-0.28;100.00;97106.05;1696865;84;21053;-70
2022/01/15 01:23:43;;;;;;;4.37;1.63;;;;;;;-0.25;100.00;97148.16;1696473;83;21054;-70
2022/01/15 01:26:23;;;;;;;5.40;1.87;;;;;;;-0.25;100.00;97174.23;1696978;84;21038;-69
2022/01/15 01:28:45;;;;;;;2.43;1.00;;;;;;;-0.25;100.00;97179.55;1693908;84;21046;-70
2022/01/15 01:33:43;;;;;;;3.87;1.30;;;;;;;-0.28;100.00;97203.79;1696545;84;21104;-68
2022/01/15 01:36:17;;;;;;;4.23;1.90;;;;;;;-0.28;100.00;97222.38;1693799;84;21010;-70
2022/01/15 01:38:48;;;;;;;5.03;1.70;;;;;;;-0.30;100.00;97239.46;1693860;84;21566;-70
2022/01/15 01:41:14;;;;;;;1.40;1.30;;;;;;;-0.34;100.00;97244.28;1694031;84;21046;-69
2022/01/15 01:48:37;;;;;;;5.00;1.87;;;;;;;-0.40;100.00;97309.52;1693378;85;21558;-70
2022/01/15 01:51:06;;;;;;;4.10;1.63;;;;;;;-0.43;100.00;97318.33;1697080;84;21492;-68
2022/01/15 01:53:34;;;;;;;5.53;1.80;;;;;;;-0.46;100.00;97350.03;1697141;82;21050;-70
2022/01/15 01:56:03;;;;;;;3.03;2.40;;;;;;;-0.47;100.00;97342.23;1693448;84;21073;-71
2022/01/15 01:58:30;;;;;;;3.00;1.80;;;;;;;-0.50;100.00;97351.34;1696851;84;21084;-69
2022/01/15 02:00:57;;;;;;;3.73;2.60;;;;;;;-0.52;100.00;97368.45;1726353;82;21020;-69
2022/01/15 02:03:24;;;;;;;2.43;1.60;;;;;;;-0.56;100.00;97371.11;1719186;83;21578;-70
2022/01/15 02:05:51;;;;;;;3.67;2.73;;;;;;;-0.57;100.00;97392.81;1716414;82;21570;-71
2022/01/15 02:08:18;;;;;;;3.30;2.40;;;;;;;-0.58;100.00;97401.28;1732216;83;21098;-70
2022/01/15 02:10:45;;;;;;;19.80;9.50;;;;;;;-0.59;100.00;97416.05;1732419;82;21086;-70
2022/01/15 02:13:14;;;;;;;31.23;19.27;;;;;;;-0.58;100.00;97441.61;1732160;82;21535;-71
2022/01/15 02:15:41;;;;;;;6.20;4.00;;;;;;;-0.56;100.00;97471.47;1732500;83;21035;-69
2022/01/15 02:18:08;;;;;;;2.57;1.43;;;;;;;-0.58;100.00;97483.57;1732569;82;21011;-69
2022/01/15 02:21:01;;;;;;;3.47;1.30;;;;;;;-0.59;100.00;97501.80;1716377;83;20995;-70
2022/01/15 02:26:00;;;;;;;3.43;1.53;;;;;;;-0.64;100.00;97532.02;1688914;84;21011;-70
2022/01/15 02:28:29;;;;;;;3.10;1.10;;;;;;;-0.63;100.00;97545.59;1716667;83;21520;-70
2022/01/15 02:30:59;;;;;;;3.07;1.40;;;;;;;-0.59;100.00;97567.34;1732587;83;21014;-70
2022/01/15 02:33:26;;;;;;;2.80;1.70;;;;;;;-0.57;100.00;97602.52;1665823;86;21102;-70
2022/01/15 02:35:53;;;;;;;0.97;0.90;;;;;;;-0.54;100.00;97640.70;1609670;88;21046;-71
2022/01/15 02:38:20;;;;;;;2.30;1.30;;;;;;;-0.51;100.00;97666.93;1631169;88;21030;-70
2022/01/15 02:40:47;;;;;;;4.03;1.37;;;;;;;-0.48;100.00;97691.84;1631268;88;21041;-69
2022/01/15 02:43:18;;;;;;;2.57;2.37;;;;;;;-0.45;100.00;97723.36;1631265;88;21061;-70
2022/01/15 02:45:55;;;;;;;4.50;2.30;;;;;;;-0.41;100.00;97737.16;1609628;88;21042;-70
2022/01/15 02:48:19;;;;;;;4.13;2.20;;;;;;;-0.41;100.00;97761.91;1630987;88;21613;-70
2022/01/15 02:50:46;;;;;;;6.83;3.67;;;;;;;-0.40;100.00;97787.45;1631158;88;21116;-69
2022/01/15 02:53:16;;;;;;;6.53;3.67;;;;;;;-0.39;100.00;97821.47;1609667;88;21026;-71
2022/01/15 02:55:48;;;;;;;8.93;5.40;;;;;;;-0.37;100.00;97820.84;1630639;87;21122;-70
2022/01/15 02:58:16;;;;;;;2.20;1.30;;;;;;;-0.36;100.00;97828.31;1609707;88;21610;-70
2022/01/15 03:00:43;;;;;;;2.90;1.57;;;;;;;-0.36;100.00;97834.44;1603856;89;21551;-70
2022/01/15 03:03:10;;;;;;;3.60;1.23;;;;;;;-0.35;100.00;97840.58;1592041;90;21047;-70
2022/01/15 03:05:38;;;;;;;2.00;1.20;;;;;;;-0.33;100.00;97837.30;1603334;89;21056;-70
2022/01/15 03:08:05;;;;;;;2.70;1.10;;;;;;;-0.32;100.00;97855.73;1595040;89;21572;-70
2022/01/15 03:10:33;;;;;;;2.33;1.13;;;;;;;-0.33;100.00;97855.38;1553523;91;21152;-69
2022/01/15 03:13:03;;;;;;;4.40;2.27;;;;;;;-0.33;100.00;97852.73;1572113;90;21074;-71
2022/01/15 03:15:29;;;;;;;6.00;2.70;;;;;;;-0.32;100.00;97868.16;1573484;91;21084;-70
2022/01/15 03:17:56;;;;;;;5.13;2.30;;;;;;;-0.32;100.00;97867.69;1572764;91;21548;-70
2022/01/15 03:20:23;;;;;;;3.67;1.90;;;;;;;-0.31;100.00;97881.79;1573386;90;21071;-70
2022/01/15 03:22:50;;;;;;;3.70;1.70;;;;;;;-0.31;100.00;97883.12;1573391;91;21088;-70
2022/01/15 03:25:18;;;;;;;3.67;2.80;;;;;;;-0.29;100.00;97884.61;1573509;91;21079;-69
2022/01/15 03:27:45;;;;;;;3.03;2.07;;;;;;;-0.31;100.00;97871.17;1573337;91;21083;-70
2022/01/15 03:30:13;;;;;;;1.20;1.10;;;;;;;-0.32;100.00;97881.44;1606667;87;21110;-70
2022/01/15 03:32:44;;;;;;;1.77;0.60;;;;;;;-0.32;100.00;97881.44;1658244;86;21587;-70
2022/01/15 03:35:14;;;;;;;3.37;1.30;;;;;;;-0.32;100.00;97892.06;1640420;86;21117;-71
2022/01/15 03:37:41;;;;;;;2.80;2.50;;;;;;;-0.34;100.00;97891.39;1652880;87;21084;-70
2022/01/15 03:40:10;;;;;;;3.70;1.10;;;;;;;-0.33;100.00;97883.77;1689308;84;21037;-69
2022/01/15 03:42:37;;;;;;;5.40;1.63;;;;;;;-0.35;100.00;97893.22;1689307;85;21060;-69
2022/01/15 03:45:06;;;;;;;3.97;1.13;;;;;;;-0.38;100.00;97890.86;1689457;85;21037;-68
2022/01/15 03:47:33;;;;;;;5.13;1.37;;;;;;;-0.39;100.00;97894.49;1666219;85;21545;-71
2022/01/15 03:50:00;;;;;;;1.60;1.50;;;;;;;-0.41;100.00;97899.98;1689091;85;21056;-69
2022/01/15 03:52:29;;;;;;;4.63;1.63;;;;;;;-0.40;100.00;97903.46;1666450;85;21538;-70
2022/01/15 03:54:56;;;;;;;2.87;1.70;;;;;;;-0.41;100.00;97896.47;1666306;85;21598;-69
2022/01/15 03:57:23;;;;;;;3.63;2.00;;;;;;;-0.41;100.00;97889.36;1665765;85;21076;-70
2022/01/15 03:59:50;;;;;;;6.53;1.80;;;;;;;-0.43;100.00;97895.30;1689254;84;21065;-70
2022/01/15 04:02:17;;;;;;;2.60;1.90;;;;;;;-0.45;100.00;97901.26;1668544;85;20993;-70
2022/01/15 04:04:44;;;;;;;4.00;1.80;;;;;;;-0.45;100.00;97907.07;1657091;85;21084;-71
2022/01/15 04:07:11;;;;;;;1.63;1.30;;;;;;;-0.46;100.00;97908.05;1654552;86;21100;-70
2022/01/15 04:09:38;;;;;;;8.43;1.97;;;;;;;-0.45;100.00;97905.74;1650586;86;21565;-71
2022/01/15 04:12:07;;;;;;;4.20;3.60;;;;;;;-0.45;100.00;97909.73;1673633;85;21534;-69
2022/01/15 04:14:34;;;;;;;3.60;1.73;;;;;;;-0.45;100.00;97915.03;1650848;86;21101;-70
2022/01/15 04:17:03;;;;;;;4.97;3.03;;;;;;;-0.45;100.00;97925.16;1651091;86;21618;-70
2022/01/15 04:19:33;;;;;;;7.00;4.53;;;;;;;-0.44;100.00;97926.02;1650560;86;21010;-70
2022/01/15 04:22:00;;;;;;;5.67;2.60;;;;;;;-0.45;100.00;97917.19;1673251;86;21108;-69
2022/01/15 04:24:26;;;;;;;10.07;4.47;;;;;;;-0.46;100.00;97915.54;1673358;85;21570;-70
2022/01/15 04:26:54;;;;;;;4.63;2.20;;;;;;;-0.46;100.00;97926.16;1673297;86;21058;-70
2022/01/15 04:29:21;;;;;;;8.57;2.90;;;;;;;-0.46;100.00;97927.95;1673595;85;21081;-70
2022/01/15 04:31:49;;;;;;;4.67;2.97;;;;;;;-0.46;100.00;97934.59;1650684;86;20962;-70
2022/01/15 04:34:20;;;;;;;2.33;1.87;;;;;;;-0.48;100.00;97941.41;1670665;84;21067;-70
2022/01/15 04:36:48;;;;;;;6.37;2.10;;;;;;;-0.48;100.00;97938.76;1628860;88;21096;-70
2022/01/15 04:39:15;;;;;;;4.07;1.30;;;;;;;-0.48;100.00;97936.58;1628920;88;21050;-70
2022/01/15 04:41:42;;;;;;;5.47;1.10;;;;;;;-0.48;100.00;97936.58;1629025;88;21546;-71
2022/01/15 04:44:09;;;;;;;2.67;1.87;;;;;;;-0.50;100.00;97936.72;1629404;88;21019;-70
2022/01/15 04:46:37;;;;;;;1.87;1.50;;;;;;;-0.52;100.00;97936.55;1651078;87;21062;-71
2022/01/15 04:49:05;;;;;;;6.90;3.40;;;;;;;-0.56;100.00;97926.73;1629153;88;21077;-71
2022/01/15 04:51:32;;;;;;;7.90;2.53;;;;;;;-0.60;100.00;97942.13;1628389;88;21092;-72
2022/01/15 04:53:59;;;;;;;6.33;1.80;;;;;;;-0.63;100.00;97940.27;1628894;88;21030;-70
2022/01/15 04:56:26;;;;;;;6.97;2.60;;;;;;;-0.65;100.00;97941.74;1628983;83;21139;-70
2022/01/15 04:58:54;;;;;;;25.33;14.90;;;;;;;-0.69;100.00;97937.73;1628843;88;21085;-72
2022/01/15 05:01:21;;;;;;;4.00;3.60;;;;;;;-0.72;100.00;97948.64;1628970;88;21090;-72
2022/01/15 05:03:48;;;;;;;5.23;2.30;;;;;;;-0.75;100.00;97936.99;1590709;90;21612;-72
2022/01/15 05:06:16;;;;;;;1.53;1.30;;;;;;;-0.80;100.00;97949.41;1590967;90;21084;-73
2022/01/15 05:08:45;;;;;;;2.60;2.40;;;;;;;-0.81;100.00;97962.82;1590965;90;21142;-72
2022/01/15 05:11:20;;;;;;;3.17;1.37;;;;;;;-0.85;100.00;97955.66;1566120;90;21099;-71
2022/01/15 05:13:40;;;;;;;10.33;6.80;;;;;;;-0.87;100.00;97964.73;1565513;90;21115;-72
2022/01/15 05:16:07;;;;;;;1.77;1.53;;;;;;;-0.91;100.00;97975.30;1587248;90;21048;-71
2022/01/15 05:18:34;;;;;;;3.43;1.30;;;;;;;-0.97;100.00;97969.61;1585921;90;21620;-70
2022/01/15 05:21:01;;;;;;;3.03;1.40;;;;;;;-0.99;100.00;97974.73;1585666;90;21091;-72
2022/01/15 05:23:28;;;;;;;11.67;2.20;;;;;;;-0.99;100.00;97980.86;1585876;90;21192;-72
2022/01/15 05:25:56;;;;;;;2.30;1.40;;;;;;;-1.00;100.00;97984.48;1586032;90;21118;-73
2022/01/15 05:28:24;;;;;;;8.37;2.63;;;;;;;-1.02;100.00;97976.34;1564014;90;21122;-73
2022/01/15 05:30:51;;;;;;;4.60;1.50;;;;;;;-1.06;100.00;97952.41;1585717;90;21103;-72
2022/01/15 05:33:18;;;;;;;4.13;1.70;;;;;;;-1.14;100.00;97951.83;1583260;89;21141;-71
2022/01/15 05:35:45;;;;;;;2.40;1.30;;;;;;;-1.22;100.00;97972.47;1575491;91;21023;-72
2022/01/15 05:38:12;;;;;;;1.67;1.50;;;;;;;-1.28;100.00;97958.95;1575564;91;21154;-71
2022/01/15 05:40:39;;;;;;;4.07;3.10;;;;;;;-1.35;100.00;97958.23;1648026;85;21095;-72
2022/01/15 05:43:06;;;;;;;3.27;2.63;;;;;;;-1.42;100.00;97959.77;1654602;85;21108;-72
2022/01/15 05:45:33;;;;;;;3.13;2.30;;;;;;;-1.49;100.00;97960.51;1654939;85;21087;-72
2022/01/15 05:48:01;;;;;;;1.90;1.80;;;;;;;-1.56;100.00;97951.83;1654789;85;21024;-72
2022/01/15 05:50:28;;;;;;;3.63;1.23;;;;;;;-1.60;100.00;97956.23;1682992;85;21084;-71
2022/01/15 05:52:55;;;;;;;3.00;1.30;;;;;;;-1.66;100.00;97961.62;1682926;85;21060;-72
2022/01/15 05:55:22;;;;;;;0.80;0.80;;;;;;;-1.68;100.00;97952.13;1683123;85;21620;-73
2022/01/15 05:57:49;;;;;;;3.27;1.10;;;;;;;-1.68;100.00;97956.96;1641376;86;21067;-72
2022/01/15 06:00:17;;;;;;;1.97;1.47;;;;;;;-1.65;100.00;97950.52;1671161;85;21090;-71
2022/01/15 06:02:44;;;;;;;2.67;2.20;;;;;;;-1.61;100.00;97946.13;1690333;84;21042;-71
2022/01/15 06:05:12;;;;;;;5.60;4.50;;;;;;;-1.53;100.00;97942.73;1688158;84;21022;-70
2022/01/15 06:07:39;;;;;;;3.60;1.67;;;;;;;-1.42;100.00;97947.84;1697808;83;21019;-72
2022/01/15 06:10:10;;;;;;;3.50;2.80;;;;;;;-1.24;100.00;97938.64;1714581;84;21047;-72
2022/01/15 06:15:09;;;;;;;2.70;1.23;;;;;;;-0.79;100.00;97943.09;1666478;85;21095;-69
2022/01/15 06:17:37;;;;;;;2.30;1.40;;;;;;;-0.70;100.00;97945.34;1666569;85;21933;-71
2022/01/15 06:20:05;;;;;;;5.97;3.30;;;;;;;-0.68;100.00;97955.81;1689627;85;21586;-69
2022/01/15 06:22:34;;;;;;;3.93;1.67;;;;;;;-0.72;100.00;97966.39;1675952;84;21027;-69
2022/01/15 06:25:03;;;;;;;3.10;2.10;;;;;;;-0.74;100.00;97981.61;1699353;84;21556;-70
2022/01/15 06:27:31;;;;;;;5.27;3.20;;;;;;;-0.77;100.00;97990.22;1730782;82;21029;-70
2022/01/15 06:29:58;;;;;;;5.03;3.07;;;;;;;-0.77;100.00;97995.52;1742905;82;21077;-68
2022/01/15 06:32:27;;;;;;;3.77;1.90;;;;;;;-0.75;100.00;98002.52;1755384;82;20998;-70
2022/01/15 06:34:54;;;;;;;4.03;1.60;;;;;;;-0.75;100.00;98008.64;1755241;82;21034;-70
2022/01/15 06:37:21;;;;;;;7.93;3.33;;;;;;;-0.73;100.00;98014.64;1755525;82;21025;-70
2022/01/15 06:39:48;;;;;;;5.00;2.87;;;;;;;-0.72;100.00;98026.11;1768292;81;21081;-69
2022/01/15 06:42:15;;;;;;;7.03;4.33;;;;;;;-0.69;100.00;98032.42;1755158;82;21090;-68
2022/01/15 06:44:43;;;;;;;5.60;2.93;;;;;;;-0.68;100.00;98042.08;1743089;82;21550;-69
2022/01/15 06:47:10;;;;;;;12.53;5.90;;;;;;;-0.65;100.00;98053.23;1768484;81;21073;-68
2022/01/15 06:49:38;;;;;;;15.23;9.20;;;;;;;-0.61;100.00;98065.20;1755158;82;21101;-70
2022/01/15 06:52:06;;;;;;;12.37;5.73;;;;;;;-0.60;100.00;98068.22;1768750;81;21015;-69
2022/01/15 06:54:34;;;;;;;15.93;5.97;;;;;;;-0.55;100.00;98073.56;1768456;81;21037;-69
2022/01/15 06:57:02;;;;;;;5.20;3.00;;;;;;;-0.54;100.00;98093.33;1768010;81;21094;-70
2022/01/15 06:59:29;;;;;;;4.73;2.10;;;;;;;-0.51;100.00;98092.19;1768586;81;21030;-70
2022/01/15 07:01:58;;;;;;;8.50;4.13;;;;;;;-0.50;100.00;98095.20;1754417;80;21480;-72
2022/01/15 07:04:25;;;;;;;14.27;6.67;;;;;;;-0.49;100.00;98099.03;1739755;82;21018;-69
2022/01/15 07:06:52;;;;;;;11.80;4.57;;;;;;;-0.47;100.00;98118.80;1737690;82;21067;-71
2022/01/15 07:09:19;;;;;;;4.30;2.03;;;;;;;-0.45;100.00;98119.48;1720650;83;21486;-69
2022/01/15 07:11:46;;;;;;;5.53;3.03;;;;;;;-0.45;100.00;98121.64;1718768;82;21027;-68
2022/01/15 07:14:15;;;;;;;4.23;2.40;;;;;;;-0.45;100.00;98135.42;1680885;83;21536;-69
2022/01/15 07:16:42;;;;;;;6.93;3.23;;;;;;;-0.45;100.00;98140.23;1720559;82;21073;-69
2022/01/15 07:19:09;;;;;;;5.03;3.47;;;;;;;-0.45;100.00;98142.89;1718928;83;21015;-69
2022/01/15 07:21:36;;;;;;;4.00;2.10;;;;;;;-0.44;100.00;98158.34;1738958;82;21137;-69
2022/01/15 07:24:04;;;;;;;6.63;3.37;;;;;;;-0.44;100.00;98156.52;1720537;82;21055;-69
2022/01/15 07:26:34;;;;;;;4.47;2.60;;;;;;;-0.42;100.00;98157.20;1723332;82;21022;-70
2022/01/15 07:29:01;;;;;;;4.37;2.47;;;;;;;-0.42;100.00;98162.52;1724286;83;21042;-68
2022/01/15 07:31:30;;;;;;;9.53;4.53;;;;;;;-0.41;100.00;98180.60;1724357;83;21065;-69
2022/01/15 07:33:57;;;;;;;26.73;11.20;;;;;;;-0.40;100.00;98180.96;1724229;83;21606;-69
2022/01/15 07:36:24;;;;;;;9.13;3.87;;;;;;;-0.36;100.00;98197.44;1723679;83;21574;-68
2022/01/15 07:38:52;;;;;;;15.87;6.23;;;;;;;-0.35;100.00;98203.94;1723903;82;21614;-70
2022/01/15 07:41:19;;;;;;;15.53;5.83;;;;;;;-0.31;100.00;98197.83;1724069;83;21050;-69
2022/01/15 07:43:46;;;;;;;14.23;6.27;;;;;;;-0.27;100.00;98203.19;1687222;85;21146;-69
2022/01/15 07:46:13;;;;;;;14.37;6.83;;;;;;;-0.23;100.00;98197.91;1669715;85;21534;-69
2022/01/15 07:48:40;;;;;;;6.53;3.50;;;;;;;-0.20;100.00;98206.92;1669507;85;21414;-71
2022/01/15 07:51:11;;;;;;;7.93;3.90;;;;;;;-0.17;100.00;98221.75;1642106;85;21057;-69
2022/01/15 07:53:38;;;;;;;19.70;7.67;;;;;;;-0.12;100.00;98232.27;1687997;85;21539;-70
2022/01/15 07:56:05;;;;;;;12.20;4.20;;;;;;;-0.08;100.00;98233.64;1687597;85;21053;-70
2022/01/15 07:58:33;;;;;;;15.77;7.50;;;;;;;-0.05;100.00;98236.02;1664422;85;21064;-70
2022/01/15 08:01:00;;;;;;;6.80;2.87;;;;;;;-0.05;100.00;98241.33;1669922;85;21061;-70
2022/01/15 08:03:27;;;;;;;8.77;4.30;;;;;;;-0.03;100.00;98251.81;1648276;85;21061;-69
2022/01/15 08:05:54;;;;;;;8.63;4.37;;;;;;;0.02;100.00;98254.01;1686724;85;21555;-68
2022/01/15 08:08:24;;;;;;;21.57;9.87;;;;;;;0.05;100.00;98257.20;1690182;85;21555;-71
2022/01/15 08:10:51;;;;;;;13.93;4.20;;;;;;;0.10;100.00;98265.58;1690119;85;21043;-69
2022/01/15 08:13:19;;;;;;;14.13;6.87;;;;;;;0.14;100.00;98268.30;1687627;85;21097;-70
2022/01/15 08:15:47;;;;;;;9.07;4.40;;;;;;;0.23;100.00;98268.38;1690857;85;21047;-70
2022/01/15 08:18:14;;;;;;;6.03;2.97;;;;;;;0.36;100.00;98276.34;1689359;85;21053;-67
2022/01/15 08:20:41;;;;;;;44.57;27.37;;;;;;;0.46;100.00;98272.78;1668110;84;20998;-68
2022/01/15 08:23:08;;;;;;;22.27;12.10;;;;;;;0.53;100.00;98276.52;1697340;82;21041;-67
2022/01/15 08:25:35;;;;;;;19.20;8.70;;;;;;;0.63;100.00;98285.27;1747765;82;21072;-67
2022/01/15 08:28:03;;;;;;;43.50;26.33;;;;;;;0.69;100.00;98283.82;1740249;82;21022;-69
2022/01/15 08:30:30;;;;;;;12.40;5.20;;;;;;;0.73;100.00;98285.21;1737166;82;21035;-68
2022/01/15 08:32:57;;;;;;;51.60;31.87;;;;;;;0.77;100.00;98290.56;1711975;82;21102;-69
2022/01/15 08:35:25;;;;;;;14.73;6.43;;;;;;;0.84;100.00;98300.94;1715191;82;21011;-69
2022/01/15 08:37:54;;;;;;;49.07;31.17;;;;;;;0.91;100.00;98305.17;1721172;82;21069;-67
2022/01/15 08:40:20;;;;;;;21.80;10.80;;;;;;;0.91;100.00;98314.48;1722301;82;21016;-68
2022/01/15 08:42:48;;;;;;;6.60;3.00;;;;;;;0.87;100.00;98315.28;1736004;82;21039;-69
2022/01/15 08:45:16;;;;;;;18.53;10.00;;;;;;;0.84;100.00;98329.38;1707980;82;21500;-69
2022/01/15 08:47:43;;;;;;;9.40;4.27;;;;;;;0.85;100.00;98335.03;1734297;81;21015;-69
2022/01/15 08:50:12;;;;;;;17.27;9.00;;;;;;;0.93;100.00;98337.78;1706107;82;21054;-69
2022/01/15 08:52:39;;;;;;;9.57;5.13;;;;;;;1.00;100.00;98321.55;1735988;82;21547;-71
2022/01/15 08:55:07;;;;;;;7.10;3.77;;;;;;;1.03;100.00;98340.39;1736402;82;21081;-70
2022/01/15 08:57:34;;;;;;;7.00;3.00;;;;;;;1.03;100.00;98341.22;1717600;82;21042;-69
2022/01/15 09:00:01;;;;;;;9.97;5.37;;;;;;;1.05;100.00;98347.72;1735830;81;21027;-70
2022/01/15 09:02:28;;;;;;;4.80;2.90;;;;;;;1.03;100.00;98352.36;1726808;82;21045;-68
2022/01/15 09:04:55;;;;;;;6.83;2.70;;;;;;;0.99;100.00;98359.78;1723950;83;21028;-70
2022/01/15 09:07:22;;;;;;;10.13;4.17;;;;;;;0.93;100.00;98360.41;1679094;85;21085;-69
2022/01/15 09:09:49;;;;;;;10.83;6.60;;;;;;;0.88;100.00;98359.52;1636296;85;20995;-68
2022/01/15 09:12:17;;;;;;;6.83;3.83;;;;;;;0.87;100.00;98365.02;1677690;84;21064;-69
2022/01/15 09:14:44;;;;;;;7.53;3.63;;;;;;;0.83;100.00;98358.30;1682780;85;21006;-70
2022/01/15 09:17:11;;;;;;;9.13;5.03;;;;;;;0.79;100.00;98365.74;1643684;86;21062;-70
2022/01/15 09:19:38;;;;;;;8.77;3.40;;;;;;;0.76;100.00;98379.34;1665172;86;21047;-70
2022/01/15 09:22:09;;;;;;;12.33;6.20;;;;;;;0.71;100.00;98373.16;1681060;85;21488;-70
2022/01/15 09:24:34;;;;;;;10.47;4.07;;;;;;;0.71;100.00;98372.33;1671295;85;21078;-70
2022/01/15 09:30:11;;;;;;;7.77;3.83;;;;;;;0.70;100.00;98378.11;1653983;85;22315;-69
2022/01/15 09:32:17;;;;;;;9.67;4.40;;;;;;;0.71;100.00;98381.64;1653044;86;21039;-70
2022/01/15 09:34:44;;;;;;;5.30;2.10;;;;;;;0.70;100.00;98384.77;1666233;86;21551;-69
2022/01/15 09:37:11;;;;;;;4.70;2.10;;;;;;;0.72;100.00;98383.30;1683884;85;21003;-70
2022/01/15 09:39:39;;;;;;;5.60;3.00;;;;;;;0.69;100.00;98392.42;1656816;85;21040;-69
2022/01/15 09:42:09;;;;;;;5.80;3.10;;;;;;;0.66;100.00;98390.05;1638957;86;21109;-72
2022/01/15 09:44:36;;;;;;;6.53;2.40;;;;;;;0.67;100.00;98393.54;1649094;84;21011;-69
2022/01/15 09:47:04;;;;;;;8.40;4.67;;;;;;;0.66;100.00;98376.75;1682721;85;21679;-70
2022/01/15 09:49:31;;;;;;;8.53;3.57;;;;;;;0.61;100.00;98394.98;1654485;85;21045;-69
2022/01/15 09:51:58;;;;;;;6.00;3.10;;;;;;;0.62;100.00;98387.83;1669672;84;20987;-71
2022/01/15 09:54:28;;;;;;;7.23;3.10;;;;;;;0.69;100.00;98384.44;1669587;85;21011;-69
2022/01/15 09:56:57;;;;;;;7.17;2.47;;;;;;;0.79;100.00;98388.86;1667533;85;21003;-69
2022/01/15 09:59:24;;;;;;;5.00;2.60;;;;;;;0.86;100.00;98375.30;1662768;85;21583;-71
2022/01/15 10:01:51;;;;;;;10.20;3.97;;;;;;;0.89;100.00;98379.00;1667450;85;21046;-70
2022/01/15 10:04:18;;;;;;;8.50;3.37;;;;;;;0.91;100.00;98389.00;1655448;85;21064;-70
2022/01/15 10:07:17;;;;;;;4.47;3.03;;;;;;;0.94;100.00;98386.88;1658726;85;21007;-70
2022/01/15 10:09:45;;;;;;;4.43;1.87;;;;;;;0.94;100.00;98386.05;1606695;88;21654;-70
2022/01/15 10:12:12;;;;;;;3.93;2.30;;;;;;;0.94;100.00;98383.38;1623724;88;21076;-70
2022/01/15 10:14:41;;;;;;;5.70;2.43;;;;;;;0.92;100.00;98392.84;1592126;89;21036;-70
2022/01/15 10:17:35;;;;;;;4.50;2.40;;;;;;;0.94;100.00;98386.05;1623356;87;21035;-70
2022/01/15 10:20:11;;;;;;;5.97;2.40;;;;;;;0.96;100.00;98389.39;1570570;90;21595;-71
2022/01/15 10:22:43;;;;;;;8.20;3.10;;;;;;;0.92;100.00;98394.64;1592258;88;21070;-70
2022/01/15 10:25:18;;;;;;;7.30;2.70;;;;;;;0.89;100.00;98416.26;1574122;90;21042;-70
2022/01/15 10:27:44;;;;;;;4.20;2.20;;;;;;;0.87;100.00;98396.95;1581574;90;21146;-69
2022/01/15 10:30:23;;;;;;;5.57;2.50;;;;;;;0.89;100.00;98406.95;1541493;92;21904;-69
2022/01/15 10:33:05;;;;;;;4.87;2.23;;;;;;;0.90;100.00;98391.30;1557071;91;21119;-69
2022/01/15 10:35:40;;;;;;;3.50;1.77;;;;;;;0.98;100.00;98396.72;1560565;91;21118;-70
2022/01/15 10:38:16;;;;;;;5.93;2.67;;;;;;;1.12;100.00;98382.06;1557526;91;21587;-70
2022/01/15 10:40:46;;;;;;;6.53;2.60;;;;;;;1.25;100.00;98371.86;1524076;93;21128;-70
2022/01/15 10:43:18;;;;;;;7.67;2.40;;;;;;;1.32;100.00;98376.08;1518128;94;21166;-71
2022/01/15 10:45:55;;;;;;;6.63;2.60;;;;;;;1.33;100.00;98377.77;1497912;94;21151;-70
2022/01/15 10:48:33;;;;;;;8.93;2.97;;;;;;;1.32;100.00;98392.89;1513676;94;21147;-70
2022/01/15 10:51:03;;;;;;;5.37;2.47;;;;;;;1.35;100.00;98395.76;1506413;94;21096;-69
2022/01/15 10:53:42;;;;;;;8.87;2.60;;;;;;;1.36;100.00;98387.27;1487779;94;21095;-65
2022/01/15 10:56:11;;;;;;;7.93;2.60;;;;;;;1.35;100.00;98387.77;1506972;94;21075;-66
2022/01/15 10:58:38;;;;;;;5.23;2.33;;;;;;;1.28;100.00;98397.36;1509372;94;21088;-65
2022/01/15 11:01:05;;;;;;;5.73;2.30;;;;;;;1.07;100.00;98403.80;1522381;94;21135;-68
2022/01/15 11:03:44;;;;;;;6.57;3.00;;;;;;;0.70;100.00;98392.75;1511030;94;21166;-69
2022/01/15 11:06:11;;;;;;;5.87;2.80;;;;;;;0.37;100.00;98381.73;1534766;91;21075;-69
2022/01/15 11:08:40;;;;;;;5.93;2.20;;;;;;;0.12;100.00;98357.95;1539548;92;21109;-69
2022/01/15 11:11:09;;;;;;;4.97;2.33;;;;;;;-0.05;100.00;98350.27;1549617;91;21090;-70
2022/01/15 11:13:42;;;;;;;9.23;3.40;;;;;;;-0.13;100.00;98332.05;1545611;91;21106;-70
2022/01/15 11:16:14;;;;;;;;;;;;;;;-0.17;100.00;98327.52;1547174;91;21089;-69
2022/01/15 11:18:43;;;;;;;5.27;2.43;;;;;;;-0.17;100.00;98325.36;1554712;90;20201;-70
2022/01/15 11:21:15;;;;;;;10.33;3.30;;;;;;;-0.21;100.00;98316.84;1541647;90;21143;-70
2022/01/15 11:23:43;;;;;;;5.53;2.60;;;;;;;-0.21;100.00;98302.23;1595160;90;21058;-68
2022/01/15 11:28:53;;;;;;;3.20;2.00;;;;;;;-0.14;100.00;98293.16;1557735;91;21097;-71
2022/01/15 11:31:26;;;;;;;7.83;3.30;;;;;;;-0.08;100.00;98289.44;1562284;91;21032;-69
2022/01/15 11:33:55;;;;;;;4.97;2.43;;;;;;;-0.04;100.00;98277.52;1533244;92;21120;-70
2022/01/15 11:36:42;;;;;;;6.07;2.60;;;;;;;0.00;100.00;98286.07;1555424;89;21110;-70
2022/01/15 11:39:16;;;;;;;5.83;2.67;;;;;;;0.02;100.00;98291.21;1617022;88;21054;-69
2022/01/15 11:41:55;;;;;;;5.03;2.40;;;;;;;0.06;100.00;98303.24;1555430;90;21610;-71
2022/01/15 11:44:36;;;;;;;7.43;3.53;;;;;;;0.10;100.00;98299.30;1552444;91;21082;-70
2022/01/15 11:47:21;;;;;;;6.53;2.80;;;;;;;0.15;100.00;98310.33;1547996;92;21101;-68
2022/01/15 11:49:53;;;;;;;4.90;2.50;;;;;;;0.20;100.00;98316.55;1595216;89;21058;-69
2022/01/15 11:52:28;;;;;;;4.03;2.47;;;;;;;0.30;100.00;98315.51;1591255;90;21559;-70
2022/01/15 11:55:05;;;;;;;5.60;2.90;;;;;;;0.43;100.00;98331.61;1587598;90;21065;-70
2022/01/15 11:57:38;;;;;;;4.77;2.30;;;;;;;0.59;100.00;98354.89;1574793;90;21135;-70
2022/01/15 12:00:27;;;;;;;9.43;3.80;;;;;;;0.77;100.00;98341.62;1590031;89;21114;-69
2022/01/15 12:03:09;;;;;;;7.07;2.63;;;;;;;1.05;100.00;98336.57;1587253;90;21100;-70